Terminal Aerodrome Forecast
Issued by NWS Sioux Falls, SD

Home | Current Version | Previous Version | Text Only | Print | Product List | Glossary Off
Versions: 1 2 3 4 5 6 7 8 9 10 11 12 13

073
FTUS43 KFSD 241720
TAFHON
TAF
KHON 241720Z 2418/2518 36020G30KT P6SM SCT025
     FM242200 35020G28KT P6SM SCT025 BKN040
     FM250300 34013G19KT P6SM SCT040 SCT250
     FM250700 33008KT P6SM SCT250
     FM251200 28005KT P6SM SCT250=

USA.gov is the U.S. government's official web portal to all federal, state and local government web resources and services.